Time,TemperatureF,DewpointF,PressureIn,WindDirection,WindDirectionDegrees,WindSpeedMPH,WindSpeedGustMPH,Humidity,HourlyPrecipIn,Conditions,Clouds,dailyrainin,SoftwareType,DateUTC
2013-08-05 00:01:00,59.2,47.4,29.32,ESE,112,0.0,1.3,65,0.00,,---,0.00,VWS V14.01,2013-08-05 04:01:00,
2013-08-05 00:02:00,59.2,47.4,29.32,ESE,112,0.0,0.0,65,0.00,,---,0.00,VWS V14.01,2013-08-05 04:02:00,
2013-08-05 00:05:00,59.0,47.7,29.32,ESE,112,0.0,1.1,66,0.00,,---,0.00,VWS V14.01,2013-08-05 04:05:00,
2013-08-05 00:08:00,58.8,47.9,29.32,SW,225,0.0,1.3,67,0.00,,---,0.00,VWS V14.01,2013-08-05 04:08:00,
2013-08-05 00:13:00,58.1,47.6,29.32,SW,225,1.1,2.2,68,0.00,,---,0.00,VWS V14.01,2013-08-05 04:13:00,
2013-08-05 00:19:00,57.4,47.3,29.32,SW,225,1.6,1.6,69,0.00,,---,0.00,VWS V14.01,2013-08-05 04:19:00,
2013-08-05 00:25:00,56.8,47.5,29.32,SW,225,0.0,0.0,71,0.00,,---,0.00,VWS V14.01,2013-08-05 04:25:00,
2013-08-05 00:30:00,56.3,46.7,29.32,ESE,112,0.0,0.0,70,0.00,,---,0.00,VWS V14.01,2013-08-05 04:30:00,
2013-08-05 00:36:00,55.9,47.1,29.32,WSW,248,0.0,0.0,72,0.00,,---,0.00,VWS V14.01,2013-08-05 04:36:00,
2013-08-05 00:42:00,55.8,46.9,29.32,NNE,22,0.0,0.0,72,0.00,,---,0.00,VWS V14.01,2013-08-05 04:42:00,
2013-08-05 00:47:00,55.6,46.7,29.32,NNE,22,0.0,0.0,72,0.00,,---,0.00,VWS V14.01,2013-08-05 04:47:00,
2013-08-05 00:53:00,55.2,47.1,29.32,WNW,292,1.1,1.3,74,0.00,,---,0.00,VWS V14.01,2013-08-05 04:53:00,
2013-08-05 00:58:00,55.0,46.9,29.32,SW,225,1.1,2.0,74,0.00,,---,0.00,VWS V14.01,2013-08-05 04:58:00,
2013-08-05 01:04:00,54.7,46.9,29.32,SW,225,0.0,0.0,75,0.00,,---,0.00,VWS V14.01,2013-08-05 05:04:00,
2013-08-05 01:10:00,54.5,46.8,29.32,West,270,1.6,2.9,75,0.00,,---,0.00,VWS V14.01,2013-08-05 05:10:00,
2013-08-05 01:15:00,54.3,46.9,29.32,West,270,0.0,0.0,76,0.00,,---,0.00,VWS V14.01,2013-08-05 05:15:00,
2013-08-05 01:21:00,54.1,47.1,29.32,WSW,248,1.6,2.0,77,0.00,,---,0.00,VWS V14.01,2013-08-05 05:21:00,
2013-08-05 01:26:00,54.1,47.1,29.32,SW,225,2.0,2.2,77,0.00,,---,0.00,VWS V14.01,2013-08-05 05:26:00,
2013-08-05 01:31:00,54.0,46.9,29.32,SW,225,0.0,0.9,77,0.00,,---,0.00,VWS V14.01,2013-08-05 05:31:00,
2013-08-05 01:37:00,53.6,46.9,29.32,SW,225,0.0,1.6,78,0.00,,---,0.00,VWS V14.01,2013-08-05 05:37:00,
2013-08-05 01:42:00,53.4,47.1,29.32,SW,225,0.0,0.0,79,0.00,,---,0.00,VWS V14.01,2013-08-05 05:42:00,
2013-08-05 01:47:00,53.4,47.1,29.32,WSW,248,2.7,2.7,79,0.00,,---,0.00,VWS V14.01,2013-08-05 05:47:00,
2013-08-05 01:53:00,53.2,46.9,29.32,West,270,0.0,0.0,79,0.00,,---,0.00,VWS V14.01,2013-08-05 05:53:00,
2013-08-05 01:59:00,53.1,47.1,29.32,West,270,0.0,0.0,80,0.00,,---,0.00,VWS V14.01,2013-08-05 05:59:00,
2013-08-05 02:05:00,53.2,47.2,29.32,SW,225,1.3,2.2,80,0.00,,---,0.00,VWS V14.01,2013-08-05 06:05:00,
2013-08-05 02:09:00,53.1,47.1,29.32,West,270,2.0,3.1,80,0.00,,---,0.00,VWS V14.01,2013-08-05 06:09:00,
2013-08-05 02:15:00,53.1,47.4,29.32,NNE,22,1.1,1.1,81,0.00,,---,0.00,VWS V14.01,2013-08-05 06:15:00,
2013-08-05 02:20:00,53.2,47.6,29.32,SSW,202,0.0,1.6,81,0.00,,---,0.00,VWS V14.01,2013-08-05 06:20:00,
2013-08-05 02:25:00,53.2,47.6,29.32,WNW,292,1.6,2.0,81,0.00,,---,0.00,VWS V14.01,2013-08-05 06:25:00,
2013-08-05 02:31:00,53.2,47.6,29.32,West,270,0.0,1.6,81,0.00,,---,0.00,VWS V14.01,2013-08-05 06:31:00,
2013-08-05 02:36:00,53.6,47.9,29.32,West,270,2.0,3.1,81,0.00,,---,0.00,VWS V14.01,2013-08-05 06:36:00,
2013-08-05 02:41:00,54.1,48.8,29.35,WSW,248,0.0,3.4,82,0.00,,---,0.00,VWS V14.01,2013-08-05 06:41:00,
2013-08-05 02:47:00,54.5,49.1,29.35,West,270,2.5,2.5,82,0.00,,---,0.00,VWS V14.01,2013-08-05 06:47:00,
2013-08-05 02:53:00,54.7,49.3,29.32,SW,225,0.9,2.7,82,0.00,,---,0.00,VWS V14.01,2013-08-05 06:53:00,
2013-08-05 02:58:00,55.0,49.7,29.32,SSW,202,0.0,1.1,82,0.00,,---,0.00,VWS V14.01,2013-08-05 06:58:00,
2013-08-05 03:03:00,55.2,49.5,29.32,WNW,292,2.9,2.9,81,0.00,,---,0.00,VWS V14.01,2013-08-05 07:03:00,
2013-08-05 03:08:00,55.6,49.8,29.32,WNW,292,0.0,0.9,81,0.00,,---,0.00,VWS V14.01,2013-08-05 07:08:00,
2013-08-05 03:15:00,55.9,49.9,29.32,SW,225,1.6,2.5,80,0.00,,---,0.00,VWS V14.01,2013-08-05 07:15:00,
2013-08-05 03:20:00,55.8,49.7,29.32,West,270,0.0,0.0,80,0.00,,---,0.00,VWS V14.01,2013-08-05 07:20:00,
2013-08-05 03:25:00,55.4,49.3,29.32,SW,225,0.0,0.0,80,0.00,,---,0.00,VWS V14.01,2013-08-05 07:25:00,
2013-08-05 03:30:00,55.4,49.3,29.32,NNW,338,3.6,3.6,80,0.00,,---,0.00,VWS V14.01,2013-08-05 07:30:00,
2013-08-05 03:36:00,55.9,49.5,29.32,SSE,158,1.6,1.6,79,0.00,,---,0.00,VWS V14.01,2013-08-05 07:36:00,
2013-08-05 03:41:00,56.5,49.7,29.32,ESE,112,2.9,2.9,78,0.00,,---,0.00,VWS V14.01,2013-08-05 07:41:00,
2013-08-05 03:46:00,56.8,49.4,29.32,SW,225,2.0,2.0,76,0.00,,---,0.00,VWS V14.01,2013-08-05 07:46:00,
2013-08-05 03:52:00,56.7,49.2,29.32,SW,225,0.0,1.3,76,0.00,,---,0.00,VWS V14.01,2013-08-05 07:52:00,
2013-08-05 03:57:00,56.3,49.2,29.32,SW,225,1.3,1.3,77,0.00,,---,0.00,VWS V14.01,2013-08-05 07:57:00,
2013-08-05 04:02:00,55.8,49.0,29.32,SW,225,0.0,1.3,78,0.00,,---,0.00,VWS V14.01,2013-08-05 08:02:00,
2013-08-05 04:07:00,55.0,48.3,29.32,SW,225,1.3,1.3,78,0.00,,---,0.00,VWS V14.01,2013-08-05 08:07:00,
2013-08-05 04:13:00,54.5,48.1,29.32,WSW,248,0.0,0.0,79,0.00,,---,0.00,VWS V14.01,2013-08-05 08:13:00,
2013-08-05 04:18:00,54.3,48.0,29.32,SW,225,2.0,2.0,79,0.00,,---,0.00,VWS V14.01,2013-08-05 08:18:00,
2013-08-05 04:24:00,53.8,47.4,29.32,SW,225,2.5,2.7,79,0.00,,---,0.00,VWS V14.01,2013-08-05 08:24:00,
2013-08-05 04:29:00,53.2,47.2,29.32,WNW,292,2.2,2.9,80,0.00,,---,0.00,VWS V14.01,2013-08-05 08:29:00,
2013-08-05 04:35:00,52.9,46.9,29.32,West,270,2.5,2.5,80,0.00,,---,0.00,VWS V14.01,2013-08-05 08:35:00,
2013-08-05 04:42:00,52.5,46.9,29.32,West,270,0.0,0.0,81,0.00,,---,0.00,VWS V14.01,2013-08-05 08:42:00,
2013-08-05 04:48:00,52.3,47.0,29.32,South,180,1.6,1.6,82,0.00,,---,0.00,VWS V14.01,2013-08-05 08:48:00,
2013-08-05 04:54:00,52.3,47.3,29.35,West,270,2.5,2.5,83,0.00,,---,0.00,VWS V14.01,2013-08-05 08:54:00,
2013-08-05 04:59:00,51.8,46.5,29.35,West,270,0.0,1.1,82,0.00,,---,0.00,VWS V14.01,2013-08-05 08:59:00,
2013-08-05 05:05:00,51.6,46.6,29.35,WSW,248,0.0,0.0,83,0.00,,---,0.00,VWS V14.01,2013-08-05 09:05:00,
2013-08-05 05:10:00,51.4,46.8,29.35,SW,225,0.0,1.3,84,0.00,,---,0.00,VWS V14.01,2013-08-05 09:10:00,
2013-08-05 05:16:00,51.1,46.4,29.35,SW,225,0.0,0.0,84,0.00,,---,0.00,VWS V14.01,2013-08-05 09:16:00,
2013-08-05 05:20:00,51.1,46.4,29.35,SSE,158,0.0,0.0,84,0.00,,---,0.00,VWS V14.01,2013-08-05 09:20:00,
2013-08-05 05:26:00,50.9,46.2,29.35,ENE,68,0.0,0.0,84,0.00,,---,0.00,VWS V14.01,2013-08-05 09:26:00,
2013-08-05 05:31:00,51.3,46.9,29.35,WNW,292,2.2,2.2,85,0.00,,---,0.00,VWS V14.01,2013-08-05 09:31:00,
2013-08-05 05:37:00,51.1,46.7,29.35,SSW,202,1.1,1.6,85,0.00,,---,0.00,VWS V14.01,2013-08-05 09:37:00,
2013-08-05 05:43:00,50.9,46.6,29.35,SSE,158,0.0,0.0,85,0.00,,---,0.00,VWS V14.01,2013-08-05 09:43:00,
2013-08-05 05:49:00,50.9,46.6,29.35,South,180,0.0,0.0,85,0.00,,---,0.00,VWS V14.01,2013-08-05 09:49:00,
2013-08-05 05:55:00,51.1,47.0,29.35,West,270,2.0,4.3,86,0.00,,---,0.00,VWS V14.01,2013-08-05 09:55:00,
2013-08-05 06:00:00,51.1,46.7,29.35,West,270,0.0,1.6,85,0.00,,---,0.00,VWS V14.01,2013-08-05 10:00:00,
2013-08-05 06:05:00,51.1,47.0,29.35,South,180,2.2,2.2,86,0.00,,---,0.00,VWS V14.01,2013-08-05 10:05:00,
2013-08-05 06:11:00,51.4,47.7,29.35,SW,225,1.6,2.5,87,0.00,,---,0.00,VWS V14.01,2013-08-05 10:11:00,
2013-08-05 06:15:00,51.4,47.4,29.35,WNW,292,0.0,0.0,86,0.00,,---,0.00,VWS V14.01,2013-08-05 10:15:00,
2013-08-05 06:22:00,51.4,47.4,29.35,WSW,248,2.5,2.9,86,0.00,,---,0.00,VWS V14.01,2013-08-05 10:22:00,
2013-08-05 06:27:00,51.4,47.4,29.35,North,0,0.9,2.0,86,0.00,,---,0.00,VWS V14.01,2013-08-05 10:27:00,
2013-08-05 06:33:00,51.6,47.6,29.35,SSW,202,2.7,2.9,86,0.00,,---,0.00,VWS V14.01,2013-08-05 10:33:00,
2013-08-05 06:39:00,51.6,47.6,29.38,SSW,202,0.0,0.0,86,0.00,,---,0.00,VWS V14.01,2013-08-05 10:39:00,
2013-08-05 06:44:00,51.6,47.6,29.38,SSW,202,0.0,0.0,86,0.00,,---,0.00,VWS V14.01,2013-08-05 10:44:00,
2013-08-05 06:51:00,51.6,47.6,29.38,West,270,0.0,0.0,86,0.00,,---,0.00,VWS V14.01,2013-08-05 10:51:00,
2013-08-05 06:57:00,51.8,47.8,29.38,West,270,0.0,0.0,86,0.00,,---,0.00,VWS V14.01,2013-08-05 10:57:00,
2013-08-05 07:02:00,52.3,48.6,29.38,West,270,0.0,0.0,87,0.00,,---,0.00,VWS V14.01,2013-08-05 11:02:00,
2013-08-05 07:06:00,52.7,49.0,29.38,SSE,158,0.0,0.0,87,0.00,,---,0.00,VWS V14.01,2013-08-05 11:06:00,
2013-08-05 07:12:00,53.2,49.5,29.38,SSE,158,1.1,1.6,87,0.00,,---,0.00,VWS V14.01,2013-08-05 11:12:00,
2013-08-05 07:18:00,53.6,49.8,29.38,SSE,158,0.0,0.0,87,0.00,,---,0.00,VWS V14.01,2013-08-05 11:18:00,
2013-08-05 07:23:00,54.3,50.5,29.38,NNE,22,0.0,0.0,87,0.00,,---,0.00,VWS V14.01,2013-08-05 11:23:00,
2013-08-05 07:29:00,54.5,50.4,29.38,NE,45,0.0,2.5,86,0.00,,---,0.00,VWS V14.01,2013-08-05 11:29:00,
2013-08-05 07:36:00,55.0,50.9,29.38,South,180,0.0,0.0,86,0.00,,---,0.00,VWS V14.01,2013-08-05 11:36:00,
2013-08-05 07:41:00,55.6,51.2,29.38,ENE,68,0.0,0.0,85,0.00,,---,0.00,VWS V14.01,2013-08-05 11:41:00,
2013-08-05 07:50:00,55.9,51.2,29.38,East,90,2.2,2.2,84,0.00,,---,0.00,VWS V14.01,2013-08-05 11:50:00,
2013-08-05 07:58:00,56.7,51.9,29.38,North,0,2.7,2.7,84,0.00,,---,0.00,VWS V14.01,2013-08-05 11:58:00,
2013-08-05 08:03:00,57.0,51.9,29.38,NNE,22,0.0,0.0,83,0.00,,---,0.00,VWS V14.01,2013-08-05 12:03:00,
2013-08-05 08:09:00,57.6,52.1,29.38,NNE,22,0.0,0.0,82,0.00,,---,0.00,VWS V14.01,2013-08-05 12:09:00,
2013-08-05 08:16:00,57.7,52.3,29.38,NNW,338,0.0,0.0,82,0.00,,---,0.00,VWS V14.01,2013-08-05 12:16:00,
2013-08-05 08:21:00,58.1,52.3,29.38,North,0,0.0,0.0,81,0.00,,---,0.00,VWS V14.01,2013-08-05 12:21:00,
2013-08-05 08:27:00,58.6,52.2,29.38,SW,225,2.0,3.4,79,0.00,,---,0.00,VWS V14.01,2013-08-05 12:27:00,
2013-08-05 08:32:00,59.2,51.3,29.38,NNW,338,3.1,4.0,75,0.00,,---,0.00,VWS V14.01,2013-08-05 12:32:00,
2013-08-05 08:37:00,59.4,50.3,29.38,SSE,158,2.0,3.8,72,0.00,,---,0.00,VWS V14.01,2013-08-05 12:37:00,
2013-08-05 08:44:00,59.7,49.5,29.38,ESE,112,3.4,3.4,69,0.00,,---,0.00,VWS V14.01,2013-08-05 12:44:00,
2013-08-05 08:50:00,59.9,48.5,29.38,SE,135,0.0,3.1,66,0.00,,---,0.00,VWS V14.01,2013-08-05 12:50:00,
2013-08-05 08:56:00,60.3,45.9,29.38,NNE,22,2.0,2.5,59,0.00,,---,0.00,VWS V14.01,2013-08-05 12:56:00,
2013-08-05 09:00:00,60.4,46.9,29.38,NNE,22,1.3,2.0,61,0.00,,---,0.00,VWS V14.01,2013-08-05 13:00:00,
2013-08-05 09:07:00,60.6,47.1,29.38,NNE,22,1.1,1.6,61,0.00,,---,0.00,VWS V14.01,2013-08-05 13:07:00,
2013-08-05 09:13:00,61.0,45.7,29.38,NNE,22,5.8,5.8,57,0.00,,---,0.00,VWS V14.01,2013-08-05 13:13:00,
2013-08-05 09:19:00,61.5,45.7,29.38,NNE,22,1.6,1.6,56,0.00,,---,0.00,VWS V14.01,2013-08-05 13:19:00,
2013-08-05 09:25:00,61.9,45.5,29.38,SW,225,4.0,4.0,55,0.00,,---,0.00,VWS V14.01,2013-08-05 13:25:00,
2013-08-05 09:31:00,62.2,46.4,29.38,WSW,248,2.5,2.5,56,0.00,,---,0.00,VWS V14.01,2013-08-05 13:31:00,
2013-08-05 09:36:00,62.2,46.4,29.38,ESE,112,1.6,2.9,56,0.00,,---,0.00,VWS V14.01,2013-08-05 13:36:00,
2013-08-05 09:40:00,62.6,46.2,29.38,NNE,22,1.6,3.6,55,0.00,,---,0.00,VWS V14.01,2013-08-05 13:40:00,
2013-08-05 09:47:00,62.8,46.9,29.38,SSE,158,2.0,2.0,56,0.00,,---,0.00,VWS V14.01,2013-08-05 13:47:00,
2013-08-05 09:53:00,63.0,46.6,29.38,East,90,2.9,3.8,55,0.00,,---,0.00,VWS V14.01,2013-08-05 13:53:00,
2013-08-05 09:58:00,63.3,45.9,29.38,SSE,158,1.1,2.5,53,0.00,,---,0.00,VWS V14.01,2013-08-05 13:58:00,
2013-08-05 10:04:00,63.5,46.1,29.38,SSE,158,3.4,3.4,53,0.00,,---,0.00,VWS V14.01,2013-08-05 14:04:00,
2013-08-05 10:09:00,63.7,46.2,29.38,NNE,22,2.2,2.5,53,0.00,,---,0.00,VWS V14.01,2013-08-05 14:09:00,
2013-08-05 10:16:00,63.9,44.9,29.38,NW,315,2.0,6.9,50,0.00,,---,0.00,VWS V14.01,2013-08-05 14:16:00,
2013-08-05 10:21:00,63.9,43.3,29.38,ESE,112,2.7,2.7,47,0.00,,---,0.00,VWS V14.01,2013-08-05 14:21:00,
2013-08-05 10:26:00,63.9,42.1,29.38,SE,135,4.0,4.3,45,0.00,,---,0.00,VWS V14.01,2013-08-05 14:26:00,
2013-08-05 10:32:00,63.9,42.7,29.38,WNW,292,2.2,2.5,46,0.00,,---,0.00,VWS V14.01,2013-08-05 14:32:00,
2013-08-05 10:39:00,64.4,43.2,29.38,ENE,68,2.9,2.9,46,0.00,,---,0.00,VWS V14.01,2013-08-05 14:39:00,
2013-08-05 10:44:00,64.8,43.5,29.38,NE,45,1.6,1.6,46,0.00,,---,0.00,VWS V14.01,2013-08-05 14:44:00,
2013-08-05 10:50:00,65.1,45.0,29.38,North,0,2.0,4.9,48,0.00,,---,0.00,VWS V14.01,2013-08-05 14:50:00,
2013-08-05 10:54:00,65.5,44.2,29.38,ESE,112,2.7,2.7,46,0.00,,---,0.00,VWS V14.01,2013-08-05 14:54:00,
2013-08-05 11:02:00,65.7,43.8,29.38,East,90,3.8,3.8,45,0.00,,---,0.00,VWS V14.01,2013-08-05 15:02:00,
2013-08-05 11:08:00,65.8,44.5,29.38,SW,225,4.0,4.0,46,0.00,,---,0.00,VWS V14.01,2013-08-05 15:08:00,
2013-08-05 11:13:00,66.0,42.9,29.38,NNE,22,2.5,2.5,43,0.00,,---,0.00,VWS V14.01,2013-08-05 15:13:00,
2013-08-05 11:19:00,66.2,43.7,29.38,West,270,0.0,6.5,44,0.00,,---,0.00,VWS V14.01,2013-08-05 15:19:00,
2013-08-05 11:24:00,66.4,43.8,29.38,NE,45,2.9,3.4,44,0.00,,---,0.00,VWS V14.01,2013-08-05 15:24:00,
2013-08-05 11:30:00,66.4,43.8,29.38,SSE,158,3.4,3.4,44,0.00,,---,0.00,VWS V14.01,2013-08-05 15:30:00,
2013-08-05 11:35:00,66.2,43.1,29.38,ESE,112,2.0,2.7,43,0.00,,---,0.00,VWS V14.01,2013-08-05 15:35:00,
2013-08-05 11:40:00,66.4,43.8,29.38,SSW,202,2.9,4.0,44,0.00,,---,0.00,VWS V14.01,2013-08-05 15:40:00,
2013-08-05 11:45:00,66.4,43.8,29.38,SSW,202,1.1,1.1,44,0.00,,---,0.00,VWS V14.01,2013-08-05 15:45:00,
2013-08-05 11:51:00,66.4,43.8,29.38,East,90,3.4,3.4,44,0.00,,---,0.00,VWS V14.01,2013-08-05 15:51:00,
2013-08-05 11:57:00,66.9,44.9,29.38,NE,45,0.0,1.6,45,0.00,,---,0.00,VWS V14.01,2013-08-05 15:57:00,
2013-08-05 12:03:00,67.1,43.9,29.38,NNE,22,3.6,3.6,43,0.00,,---,0.00,VWS V14.01,2013-08-05 16:03:00,
2013-08-05 12:09:00,67.3,44.0,29.38,SSE,158,1.6,2.2,43,0.00,,---,0.00,VWS V14.01,2013-08-05 16:09:00,
2013-08-05 12:16:00,67.5,44.2,29.38,South,180,4.3,4.3,43,0.00,,---,0.00,VWS V14.01,2013-08-05 16:16:00,
2013-08-05 12:21:00,67.8,44.5,29.38,West,270,2.5,2.5,43,0.00,,---,0.00,VWS V14.01,2013-08-05 16:21:00,
2013-08-05 12:27:00,68.0,43.5,29.38,ENE,68,2.2,3.6,41,0.00,,---,0.00,VWS V14.01,2013-08-05 16:27:00,
2013-08-05 12:32:00,68.7,44.1,29.38,SE,135,3.1,3.1,41,0.00,,---,0.00,VWS V14.01,2013-08-05 16:32:00,
2013-08-05 12:40:00,68.9,44.2,29.38,NW,315,0.9,2.7,41,0.00,,---,0.00,VWS V14.01,2013-08-05 16:40:00,
2013-08-05 12:45:00,69.1,41.7,29.38,NNE,22,4.7,4.7,37,0.00,,---,0.00,VWS V14.01,2013-08-05 16:45:00,
2013-08-05 12:50:00,69.3,41.2,29.38,South,180,3.8,4.9,36,0.00,,---,0.00,VWS V14.01,2013-08-05 16:50:00,
2013-08-05 12:57:00,69.3,40.5,29.38,West,270,3.6,6.3,35,0.00,,---,0.00,VWS V14.01,2013-08-05 16:57:00,
2013-08-05 13:02:00,69.1,41.0,29.38,NW,315,2.2,7.6,36,0.00,,---,0.00,VWS V14.01,2013-08-05 17:02:00,
2013-08-05 13:08:00,69.1,41.0,29.38,ESE,112,3.4,3.6,36,0.00,,---,0.00,VWS V14.01,2013-08-05 17:08:00,
2013-08-05 13:12:00,69.1,40.3,29.38,WSW,248,5.6,8.5,35,0.00,,---,0.00,VWS V14.01,2013-08-05 17:12:00,
2013-08-05 13:18:00,69.1,40.3,29.38,ESE,112,5.4,5.4,35,0.00,,---,0.00,VWS V14.01,2013-08-05 17:18:00,
2013-08-05 13:23:00,69.1,40.3,29.38,ENE,68,3.8,7.6,35,0.00,,---,0.00,VWS V14.01,2013-08-05 17:23:00,
2013-08-05 13:29:00,69.1,40.3,29.38,East,90,7.8,7.8,35,0.00,,---,0.00,VWS V14.01,2013-08-05 17:29:00,
2013-08-05 13:34:00,68.9,40.2,29.38,West,270,3.6,3.8,35,0.00,,---,0.00,VWS V14.01,2013-08-05 17:34:00,
2013-08-05 13:39:00,69.3,40.5,29.35,SSW,202,3.8,7.6,35,0.00,,---,0.00,VWS V14.01,2013-08-05 17:39:00,
2013-08-05 13:45:00,69.1,39.6,29.35,SSE,158,6.0,6.3,34,0.00,,---,0.00,VWS V14.01,2013-08-05 17:45:00,
2013-08-05 13:51:00,69.4,39.9,29.35,WSW,248,4.7,7.8,34,0.00,,---,0.00,VWS V14.01,2013-08-05 17:51:00,
2013-08-05 13:57:00,69.4,39.9,29.38,SW,225,3.6,7.8,34,0.00,,---,0.00,VWS V14.01,2013-08-05 17:57:00,
2013-08-05 14:02:00,69.4,39.9,29.38,SSW,202,4.9,7.6,34,0.00,,---,0.00,VWS V14.01,2013-08-05 18:02:00,
2013-08-05 14:07:00,69.8,40.2,29.38,NW,315,6.5,8.7,34,0.00,,---,0.00,VWS V14.01,2013-08-05 18:07:00,
2013-08-05 14:13:00,69.8,40.2,29.35,West,270,3.6,9.4,34,0.00,,---,0.00,VWS V14.01,2013-08-05 18:13:00,
2013-08-05 14:35:00,71.2,42.2,29.38,WSW,248,4.0,5.6,35,0.00,,---,0.00,VWS V14.01,2013-08-05 18:35:00,
2013-08-05 14:40:00,71.4,42.4,29.38,NW,315,2.5,5.6,35,0.00,,---,0.00,VWS V14.01,2013-08-05 18:40:00,
2013-08-05 14:45:00,71.8,42.7,29.38,West,270,6.0,6.0,35,0.00,,---,0.00,VWS V14.01,2013-08-05 18:45:00,
2013-08-05 14:51:00,71.8,41.2,29.38,SSW,202,5.8,5.8,33,0.00,,---,0.00,VWS V14.01,2013-08-05 18:51:00,
2013-08-05 14:57:00,71.6,41.0,29.38,WNW,292,5.8,9.6,33,0.00,,---,0.00,VWS V14.01,2013-08-05 18:57:00,
2013-08-05 15:03:00,71.8,41.2,29.38,West,270,3.8,5.6,33,0.00,,---,0.00,VWS V14.01,2013-08-05 19:03:00,
2013-08-05 15:09:00,71.8,41.2,29.38,WSW,248,4.3,4.3,33,0.00,,---,0.00,VWS V14.01,2013-08-05 19:09:00,
2013-08-05 15:14:00,72.1,41.5,29.38,NNW,338,2.9,5.4,33,0.00,,---,0.00,VWS V14.01,2013-08-05 19:14:00,
2013-08-05 15:21:00,72.1,40.7,29.38,East,90,2.9,3.6,32,0.00,,---,0.00,VWS V14.01,2013-08-05 19:21:00,
2013-08-05 15:26:00,72.7,42.7,29.38,West,270,5.6,5.6,34,0.00,,---,0.00,VWS V14.01,2013-08-05 19:26:00,
2013-08-05 15:31:00,72.9,42.1,29.38,West,270,5.6,5.8,33,0.00,,---,0.00,VWS V14.01,2013-08-05 19:31:00,
2013-08-05 15:38:00,73.2,42.4,29.38,SSW,202,2.0,3.4,33,0.00,,---,0.00,VWS V14.01,2013-08-05 19:38:00,
2013-08-05 15:43:00,73.0,41.5,29.38,ESE,112,3.1,3.1,32,0.00,,---,0.00,VWS V14.01,2013-08-05 19:43:00,
2013-08-05 15:49:00,73.0,41.5,29.38,WSW,248,6.3,6.3,32,0.00,,---,0.00,VWS V14.01,2013-08-05 19:49:00,
2013-08-05 15:55:00,72.9,41.3,29.38,North,0,1.6,1.6,32,0.00,,---,0.00,VWS V14.01,2013-08-05 19:55:00,
2013-08-05 16:02:00,73.0,41.5,29.38,SSW,202,4.3,9.8,32,0.00,,---,0.00,VWS V14.01,2013-08-05 20:02:00,
2013-08-05 16:07:00,73.4,41.8,29.38,SSW,202,3.4,3.4,32,0.00,,---,0.00,VWS V14.01,2013-08-05 20:07:00,
2013-08-05 16:13:00,73.0,40.6,29.38,South,180,4.5,4.5,31,0.00,,---,0.00,VWS V14.01,2013-08-05 20:13:00,
2013-08-05 16:18:00,72.9,41.3,29.38,SSE,158,2.9,4.0,32,0.00,,---,0.00,VWS V14.01,2013-08-05 20:18:00,
2013-08-05 16:25:00,72.7,40.3,29.35,SW,225,7.2,7.8,31,0.00,,---,0.00,VWS V14.01,2013-08-05 20:25:00,
2013-08-05 16:30:00,72.3,40.0,29.35,NNW,338,4.7,7.6,31,0.00,,---,0.00,VWS V14.01,2013-08-05 20:30:00,
2013-08-05 16:35:00,72.0,39.7,29.35,WSW,248,4.7,10.1,31,0.00,,---,0.00,VWS V14.01,2013-08-05 20:35:00,
2013-08-05 16:41:00,72.0,39.7,29.38,NNW,338,3.1,6.0,31,0.00,,---,0.00,VWS V14.01,2013-08-05 20:41:00,
2013-08-05 16:46:00,71.8,39.5,29.38,ESE,112,4.7,13.0,31,0.00,,---,0.00,VWS V14.01,2013-08-05 20:46:00,
2013-08-05 16:51:00,72.0,39.7,29.38,East,90,5.6,8.7,31,0.00,,---,0.00,VWS V14.01,2013-08-05 20:51:00,
2013-08-05 16:57:00,71.6,39.4,29.38,SSE,158,2.9,7.2,31,0.00,,---,0.00,VWS V14.01,2013-08-05 20:57:00,
2013-08-05 17:02:00,71.6,39.4,29.38,SSE,158,3.6,4.3,31,0.00,,---,0.00,VWS V14.01,2013-08-05 21:02:00,
2013-08-05 17:08:00,70.9,38.8,29.38,SW,225,7.4,7.4,31,0.00,,---,0.00,VWS V14.01,2013-08-05 21:08:00,
2013-08-05 17:16:00,70.7,39.4,29.38,WNW,292,4.3,6.0,32,0.00,,---,0.00,VWS V14.01,2013-08-05 21:16:00,
2013-08-05 17:21:00,70.7,38.6,29.38,SSW,202,2.9,5.4,31,0.00,,---,0.00,VWS V14.01,2013-08-05 21:21:00,
2013-08-05 17:26:00,70.5,38.5,29.38,South,180,4.7,6.3,31,0.00,,---,0.00,VWS V14.01,2013-08-05 21:26:00,
2013-08-05 17:31:00,70.2,39.0,29.38,West,270,2.7,10.5,32,0.00,,---,0.00,VWS V14.01,2013-08-05 21:31:00,
2013-08-05 17:37:00,70.0,38.0,29.38,SW,225,4.3,7.4,31,0.00,,---,0.00,VWS V14.01,2013-08-05 21:37:00,
2013-08-05 17:42:00,69.8,38.6,29.38,WSW,248,5.8,5.8,32,0.00,,---,0.00,VWS V14.01,2013-08-05 21:42:00,
2013-08-05 17:47:00,69.6,38.5,29.38,SW,225,1.6,8.1,32,0.00,,---,0.00,VWS V14.01,2013-08-05 21:47:00,
2013-08-05 17:53:00,69.4,38.3,29.38,West,270,5.4,9.4,32,0.00,,---,0.00,VWS V14.01,2013-08-05 21:53:00,
2013-08-05 17:58:00,69.4,38.3,29.38,NNW,338,7.8,7.8,32,0.00,,---,0.00,VWS V14.01,2013-08-05 21:58:00,
2013-08-05 18:03:00,69.3,38.2,29.38,SSE,158,3.1,5.6,32,0.00,,---,0.00,VWS V14.01,2013-08-05 22:03:00,
2013-08-05 18:09:00,69.3,38.2,29.38,SW,225,3.4,4.0,32,0.00,,---,0.00,VWS V14.01,2013-08-05 22:09:00,
2013-08-05 18:15:00,69.1,38.0,29.38,WSW,248,2.5,3.1,32,0.00,,---,0.00,VWS V14.01,2013-08-05 22:15:00,
2013-08-05 18:21:00,68.9,37.8,29.38,West,270,1.1,3.4,32,0.00,,---,0.00,VWS V14.01,2013-08-05 22:21:00,
2013-08-05 18:26:00,68.9,38.6,29.38,East,90,0.0,2.0,33,0.00,,---,0.00,VWS V14.01,2013-08-05 22:26:00,
2013-08-05 18:31:00,68.9,38.6,29.38,ENE,68,1.6,2.9,33,0.00,,---,0.00,VWS V14.01,2013-08-05 22:31:00,
2013-08-05 18:37:00,68.5,38.3,29.38,NNE,22,0.0,0.0,33,0.00,,---,0.00,VWS V14.01,2013-08-05 22:37:00,
2013-08-05 18:43:00,68.2,38.0,29.38,WNW,292,1.1,2.7,33,0.00,,---,0.00,VWS V14.01,2013-08-05 22:43:00,
2013-08-05 18:48:00,67.6,37.5,29.38,NNE,22,1.6,1.6,33,0.00,,---,0.00,VWS V14.01,2013-08-05 22:48:00,
2013-08-05 18:54:00,66.7,36.0,29.41,West,270,2.9,2.9,32,0.00,,---,0.00,VWS V14.01,2013-08-05 22:54:00,
2013-08-05 18:59:00,66.4,37.2,29.41,NNW,338,2.7,2.7,34,0.00,,---,0.00,VWS V14.01,2013-08-05 22:59:00,
2013-08-05 19:04:00,66.0,36.1,29.41,North,0,0.0,0.9,33,0.00,,---,0.00,VWS V14.01,2013-08-05 23:04:00,
2013-08-05 19:10:00,65.7,35.8,29.41,SE,135,2.5,2.5,33,0.00,,---,0.00,VWS V14.01,2013-08-05 23:10:00,
2013-08-05 19:15:00,65.1,35.3,29.41,West,270,2.7,2.7,33,0.00,,---,0.00,VWS V14.01,2013-08-05 23:15:00,
2013-08-05 19:22:00,64.8,35.0,29.41,NNE,22,0.9,0.9,33,0.00,,---,0.00,VWS V14.01,2013-08-05 23:22:00,
2013-08-05 19:27:00,64.4,35.5,29.41,WSW,248,0.0,1.3,34,0.00,,---,0.00,VWS V14.01,2013-08-05 23:27:00,
2013-08-05 19:33:00,63.9,35.7,29.41,WSW,248,0.0,0.0,35,0.00,,---,0.00,VWS V14.01,2013-08-05 23:33:00,
2013-08-05 19:39:00,63.0,35.6,29.44,SW,225,1.3,1.6,36,0.00,,---,0.00,VWS V14.01,2013-08-05 23:39:00,
2013-08-05 19:44:00,62.4,35.8,29.44,SW,225,1.1,1.1,37,0.00,,---,0.00,VWS V14.01,2013-08-05 23:44:00,
2013-08-05 19:49:00,61.7,37.2,29.44,SW,225,0.0,2.0,40,0.00,,---,0.00,VWS V14.01,2013-08-05 23:49:00,
2013-08-05 19:54:00,61.0,37.1,29.44,SW,225,1.6,2.0,41,0.00,,---,0.00,VWS V14.01,2013-08-05 23:54:00,
2013-08-05 19:59:00,60.4,38.4,29.44,SW,225,0.0,0.0,44,0.00,,---,0.00,VWS V14.01,2013-08-05 23:59:00,
2013-08-05 20:06:00,59.7,38.4,29.44,SW,225,0.9,2.2,45,0.00,,---,0.00,VWS V14.01,2013-08-06 00:06:00,
2013-08-05 20:11:00,59.0,37.7,29.44,SW,225,0.0,0.0,45,0.00,,---,0.00,VWS V14.01,2013-08-06 00:11:00,
2013-08-05 20:17:00,58.3,38.7,29.44,SW,225,0.0,1.6,48,0.00,,---,0.00,VWS V14.01,2013-08-06 00:17:00,
2013-08-05 20:23:00,57.9,38.4,29.44,SW,225,1.6,1.6,48,0.00,,---,0.00,VWS V14.01,2013-08-06 00:23:00,
2013-08-05 20:29:00,57.4,38.9,29.44,SW,225,0.0,0.0,50,0.00,,---,0.00,VWS V14.01,2013-08-06 00:29:00,
2013-08-05 20:35:00,57.0,38.6,29.44,SW,225,1.3,1.3,50,0.00,,---,0.00,VWS V14.01,2013-08-06 00:35:00,
2013-08-05 20:41:00,56.5,38.6,29.44,SSE,158,0.0,1.1,51,0.00,,---,0.00,VWS V14.01,2013-08-06 00:41:00,
2013-08-05 20:46:00,56.1,37.8,29.44,SSE,158,0.0,0.0,50,0.00,,---,0.00,VWS V14.01,2013-08-06 00:46:00,
2013-08-05 20:51:00,56.1,38.3,29.44,SSW,202,1.1,1.3,51,0.00,,---,0.00,VWS V14.01,2013-08-06 00:51:00,
2013-08-05 20:56:00,55.8,37.9,29.47,NNW,338,0.0,0.0,51,0.00,,---,0.00,VWS V14.01,2013-08-06 00:56:00,
2013-08-05 21:01:00,55.6,38.2,29.47,ESE,112,4.0,4.3,52,0.00,,---,0.00,VWS V14.01,2013-08-06 01:01:00,
2013-08-05 21:07:00,55.9,39.5,29.47,SSW,202,1.3,3.1,54,0.00,,---,0.00,VWS V14.01,2013-08-06 01:07:00,
2013-08-05 21:13:00,55.2,38.9,29.47,SSW,202,2.0,2.0,54,0.00,,---,0.00,VWS V14.01,2013-08-06 01:13:00,
2013-08-05 21:18:00,54.9,39.0,29.47,SSW,202,0.0,0.0,55,0.00,,---,0.00,VWS V14.01,2013-08-06 01:18:00,
2013-08-05 21:25:00,54.5,38.7,29.47,SSW,202,0.0,0.0,55,0.00,,---,0.00,VWS V14.01,2013-08-06 01:25:00,
2013-08-05 21:30:00,54.1,39.3,29.47,SSW,202,1.6,1.6,57,0.00,,---,0.00,VWS V14.01,2013-08-06 01:30:00,
2013-08-05 21:37:00,53.8,38.9,29.47,SSW,202,1.1,2.7,57,0.00,,---,0.00,VWS V14.01,2013-08-06 01:37:00,
2013-08-05 21:45:00,53.4,39.0,29.47,SSW,202,0.0,0.0,58,0.00,,---,0.00,VWS V14.01,2013-08-06 01:45:00,
2013-08-05 21:50:00,53.1,40.0,29.47,SSW,202,2.0,2.5,61,0.00,,---,0.00,VWS V14.01,2013-08-06 01:50:00,
2013-08-05 21:55:00,52.7,39.6,29.50,SSW,202,0.0,0.0,61,0.00,,---,0.00,VWS V14.01,2013-08-06 01:55:00,
2013-08-05 22:01:00,52.5,39.9,29.50,WNW,292,2.9,2.9,62,0.00,,---,0.00,VWS V14.01,2013-08-06 02:01:00,
2013-08-05 22:06:00,52.2,39.5,29.50,WNW,292,0.0,0.0,62,0.00,,---,0.00,VWS V14.01,2013-08-06 02:06:00,
2013-08-05 22:11:00,51.8,39.2,29.50,WNW,292,0.0,0.0,62,0.00,,---,0.00,VWS V14.01,2013-08-06 02:11:00,
2013-08-05 22:16:00,51.8,39.2,29.50,South,180,0.0,1.6,62,0.00,,---,0.00,VWS V14.01,2013-08-06 02:16:00,
2013-08-05 22:23:00,51.8,39.6,29.50,South,180,0.0,0.0,63,0.00,,---,0.00,VWS V14.01,2013-08-06 02:23:00,
2013-08-05 22:28:00,51.8,40.0,29.50,ESE,112,0.0,0.0,64,0.00,,---,0.00,VWS V14.01,2013-08-06 02:28:00,
2013-08-05 22:34:00,51.8,40.0,29.50,ESE,112,0.0,0.0,64,0.00,,---,0.00,VWS V14.01,2013-08-06 02:34:00,
2013-08-05 22:39:00,51.8,40.4,29.50,ENE,68,0.0,0.0,65,0.00,,---,0.00,VWS V14.01,2013-08-06 02:39:00,
2013-08-05 22:44:00,51.6,40.7,29.50,ENE,68,0.0,0.0,66,0.00,,---,0.00,VWS V14.01,2013-08-06 02:44:00,
2013-08-05 22:50:00,51.4,40.5,29.50,ENE,68,0.0,0.0,66,0.00,,---,0.00,VWS V14.01,2013-08-06 02:50:00,
2013-08-05 22:56:00,51.1,40.5,29.50,ENE,68,0.0,0.0,67,0.00,,---,0.00,VWS V14.01,2013-08-06 02:56:00,
2013-08-05 23:02:00,50.9,40.3,29.50,ENE,68,0.0,0.0,67,0.00,,---,0.00,VWS V14.01,2013-08-06 03:02:00,
2013-08-05 23:07:00,50.7,40.6,29.50,West,270,1.6,1.6,68,0.00,,---,0.00,VWS V14.01,2013-08-06 03:07:00,
2013-08-05 23:12:00,50.7,40.6,29.50,WSW,248,2.0,2.0,68,0.00,,---,0.00,VWS V14.01,2013-08-06 03:12:00,
2013-08-05 23:18:00,50.7,41.7,29.50,NE,45,3.4,3.4,71,0.00,,---,0.00,VWS V14.01,2013-08-06 03:18:00,
2013-08-05 23:24:00,50.5,41.1,29.50,NNE,22,0.0,0.0,70,0.00,,---,0.00,VWS V14.01,2013-08-06 03:24:00,
2013-08-05 23:29:00,50.4,41.0,29.50,NNE,22,0.0,0.0,70,0.00,,---,0.00,VWS V14.01,2013-08-06 03:29:00,
2013-08-05 23:35:00,50.4,41.0,29.50,NNE,22,0.0,0.0,70,0.00,,---,0.00,VWS V14.01,2013-08-06 03:35:00,
2013-08-05 23:42:00,50.2,40.8,29.50,SW,225,1.6,1.6,70,0.00,,---,0.00,VWS V14.01,2013-08-06 03:42:00,
2013-08-05 23:49:00,50.0,41.0,29.50,WSW,248,0.0,0.0,71,0.00,,---,0.00,VWS V14.01,2013-08-06 03:49:00,
2013-08-05 23:54:00,49.8,41.2,29.50,SW,225,1.3,2.0,72,0.00,,---,0.00,VWS V14.01,2013-08-06 03:54:00,
2013-08-05 23:59:00,49.6,41.0,29.50,SW,225,0.0,0.0,72,0.00,,---,0.00,VWS V14.01,2013-08-06 03:59:00,